sensor_id;sensor_type;location;lat;lon;timestamp;pressure;altitude;pressure_sealevel;temperature;humidity
61506;BME280;47366;51.916;4.574;2024-01-30T00:01:37;102655.53;;;9.57;100.00
61506;BME280;47366;51.916;4.574;2024-01-30T00:04:03;102657.50;;;9.52;100.00
61506;BME280;47366;51.916;4.574;2024-01-30T00:06:28;102656.50;;;9.56;100.00
61506;BME280;47366;51.916;4.574;2024-01-30T00:08:53;102647.41;;;9.59;100.00
61506;BME280;47366;51.916;4.574;2024-01-30T00:11:19;102644.81;;;9.54;100.00
61506;BME280;47366;51.916;4.574;2024-01-30T00:13:44;102644.69;;;9.59;100.00
61506;BME280;47366;51.916;4.574;2024-01-30T00:16:23;102633.03;;;9.56;100.00
61506;BME280;47366;51.916;4.574;2024-01-30T00:18:51;102650.03;;;9.60;100.00
61506;BME280;47366;51.916;4.574;2024-01-30T00:21:17;102638.59;;;9.50;100.00
61506;BME280;47366;51.916;4.574;2024-01-30T00:23:42;102650.84;;;9.64;100.00
61506;BME280;47366;51.916;4.574;2024-01-30T00:26:08;102647.19;;;9.65;99.73
61506;BME280;47366;51.916;4.574;2024-01-30T00:28:33;102638.34;;;9.60;99.89
61506;BME280;47366;51.916;4.574;2024-01-30T00:30:58;102631.19;;;9.57;100.00
61506;BME280;47366;51.916;4.574;2024-01-30T00:33:24;102618.69;;;9.53;100.00
61506;BME280;47366;51.916;4.574;2024-01-30T00:35:49;102618.56;;;9.57;100.00
61506;BME280;47366;51.916;4.574;2024-01-30T00:38:14;102627.53;;;9.58;100.00
61506;BME280;47366;51.916;4.574;2024-01-30T00:40:39;102614.25;;;9.50;100.00
61506;BME280;47366;51.916;4.574;2024-01-30T00:43:05;102612.34;;;9.54;100.00
61506;BME280;47366;51.916;4.574;2024-01-30T00:45:31;102615.84;;;9.57;100.00
61506;BME280;47366;51.916;4.574;2024-01-30T00:47:56;102614.31;;;9.49;100.00
61506;BME280;47366;51.916;4.574;2024-01-30T00:50:21;102621.38;;;9.53;100.00
61506;BME280;47366;51.916;4.574;2024-01-30T00:52:47;102632.06;;;9.57;100.00
61506;BME280;47366;51.916;4.574;2024-01-30T00:55:12;102632.03;;;9.59;99.88
61506;BME280;47366;51.916;4.574;2024-01-30T00:57:39;102632.97;;;9.58;99.65
61506;BME280;47366;51.916;4.574;2024-01-30T01:00:05;102621.19;;;9.61;99.37
61506;BME280;47366;51.916;4.574;2024-01-30T01:02:34;102630.06;;;9.66;99.20
61506;BME280;47366;51.916;4.574;2024-01-30T01:04:59;102629.06;;;9.68;98.75
61506;BME280;47366;51.916;4.574;2024-01-30T01:07:25;102627.25;;;9.69;98.44
61506;BME280;47366;51.916;4.574;2024-01-30T01:09:50;102618.41;;;9.62;98.54
61506;BME280;47366;51.916;4.574;2024-01-30T01:12:15;102608.53;;;9.61;98.57
61506;BME280;47366;51.916;4.574;2024-01-30T01:14:41;102610.44;;;9.57;99.10
61506;BME280;47366;51.916;4.574;2024-01-30T01:17:07;102616.56;;;9.64;98.61
61506;BME280;47366;51.916;4.574;2024-01-30T01:19:32;102619.16;;;9.67;98.29
61506;BME280;47366;51.916;4.574;2024-01-30T01:21:58;102614.72;;;9.65;98.00
61506;BME280;47366;51.916;4.574;2024-01-30T01:24:23;102607.66;;;9.61;98.47
61506;BME280;47366;51.916;4.574;2024-01-30T01:26:49;102610.19;;;9.65;98.38
61506;BME280;47366;51.916;4.574;2024-01-30T01:29:14;102607.38;;;9.70;98.23
61506;BME280;47366;51.916;4.574;2024-01-30T01:31:41;102614.66;;;9.68;97.95
61506;BME280;47366;51.916;4.574;2024-01-30T01:34:10;102615.81;;;9.59;98.81
61506;BME280;47366;51.916;4.574;2024-01-30T01:36:35;102604.97;;;9.61;98.86
61506;BME280;47366;51.916;4.574;2024-01-30T01:39:01;102603.00;;;9.66;98.58
61506;BME280;47366;51.916;4.574;2024-01-30T01:41:30;102594.03;;;9.64;98.68
61506;BME280;47366;51.916;4.574;2024-01-30T01:43:56;102586.06;;;9.59;98.93
61506;BME280;47366;51.916;4.574;2024-01-30T01:46:22;102604.75;;;9.67;98.48
61506;BME280;47366;51.916;4.574;2024-01-30T01:48:47;102605.09;;;9.56;98.67
61506;BME280;47366;51.916;4.574;2024-01-30T01:51:14;102620.84;;;9.71;98.27
61506;BME280;47366;51.916;4.574;2024-01-30T01:53:39;102603.91;;;9.65;97.66
61506;BME280;47366;51.916;4.574;2024-01-30T01:56:05;102612.88;;;9.67;98.20
61506;BME280;47366;51.916;4.574;2024-01-30T01:58:31;102602.09;;;9.65;98.02
61506;BME280;47366;51.916;4.574;2024-01-30T02:01:00;102598.47;;;9.66;98.44
61506;BME280;47366;51.916;4.574;2024-01-30T02:03:25;102595.75;;;9.66;98.84
61506;BME280;47366;51.916;4.574;2024-01-30T02:05:51;102588.38;;;9.71;98.27
61506;BME280;47366;51.916;4.574;2024-01-30T02:08:16;102592.94;;;9.69;98.46
61506;BME280;47366;51.916;4.574;2024-01-30T02:10:42;102592.72;;;9.77;98.12
61506;BME280;47366;51.916;4.574;2024-01-30T02:13:07;102582.03;;;9.72;98.33
61506;BME280;47366;51.916;4.574;2024-01-30T02:15:33;102579.25;;;9.75;98.01
61506;BME280;47366;51.916;4.574;2024-01-30T02:17:58;102587.31;;;9.77;97.93
61506;BME280;47366;51.916;4.574;2024-01-30T02:20:24;102590.91;;;9.77;98.80
61506;BME280;47366;51.916;4.574;2024-01-30T02:22:52;102586.31;;;9.79;98.37
61506;BME280;47366;51.916;4.574;2024-01-30T02:25:18;102582.03;;;9.72;99.01
61506;BME280;47366;51.916;4.574;2024-01-30T02:27:43;102591.94;;;9.73;99.02
61506;BME280;47366;51.916;4.574;2024-01-30T02:30:10;102591.25;;;9.65;99.10
61506;BME280;47366;51.916;4.574;2024-01-30T02:32:35;102591.09;;;9.71;98.79
61506;BME280;47366;51.916;4.574;2024-01-30T02:35:00;102595.66;;;9.69;98.98
61506;BME280;47366;51.916;4.574;2024-01-30T02:37:26;102585.03;;;9.63;99.31
61506;BME280;47366;51.916;4.574;2024-01-30T02:39:51;102592.31;;;9.61;99.47
61506;BME280;47366;51.916;4.574;2024-01-30T02:42:16;102580.78;;;9.54;100.00
61506;BME280;47366;51.916;4.574;2024-01-30T02:44:42;102592.09;;;9.67;99.62
61506;BME280;47366;51.916;4.574;2024-01-30T02:47:07;102588.38;;;9.71;99.55
61506;BME280;47366;51.916;4.574;2024-01-30T02:49:32;102577.72;;;9.65;99.05
61506;BME280;47366;51.916;4.574;2024-01-30T02:51:58;102573.31;;;9.63;99.71
61506;BME280;47366;51.916;4.574;2024-01-30T02:54:23;102570.53;;;9.66;99.48
61506;BME280;47366;51.916;4.574;2024-01-30T02:56:49;102566.00;;;9.66;100.00
61506;BME280;47366;51.916;4.574;2024-01-30T02:59:14;102562.41;;;9.66;99.96
61506;BME280;47366;51.916;4.574;2024-01-30T03:01:43;102549.72;;;9.68;99.73
61506;BME280;47366;51.916;4.574;2024-01-30T03:04:09;102539.91;;;9.64;99.95
61506;BME280;47366;51.916;4.574;2024-01-30T03:06:34;102550.50;;;9.71;100.00
61506;BME280;47366;51.916;4.574;2024-01-30T03:09:00;102550.59;;;9.68;100.00
61506;BME280;47366;51.916;4.574;2024-01-30T03:11:25;102555.06;;;9.69;100.00
61506;BME280;47366;51.916;4.574;2024-01-30T03:13:50;102556.03;;;9.68;100.00
61506;BME280;47366;51.916;4.574;2024-01-30T03:16:16;102560.44;;;9.71;100.00
61506;BME280;47366;51.916;4.574;2024-01-30T03:18:41;102548.94;;;9.63;100.00
61506;BME280;47366;51.916;4.574;2024-01-30T03:21:07;102549.91;;;9.62;100.00
61506;BME280;47366;51.916;4.574;2024-01-30T03:23:32;102570.31;;;9.72;99.68
61506;BME280;47366;51.916;4.574;2024-01-30T03:25:58;102558.66;;;9.70;99.58
61506;BME280;47366;51.916;4.574;2024-01-30T03:28:23;102560.44;;;9.71;99.74
61506;BME280;47366;51.916;4.574;2024-01-30T03:30:48;102551.50;;;9.69;99.86
61506;BME280;47366;51.916;4.574;2024-01-30T03:33:14;102559.59;;;9.69;100.00
61506;BME280;47366;51.916;4.574;2024-01-30T03:35:39;102564.78;;;9.76;99.90
61506;BME280;47366;51.916;4.574;2024-01-30T03:38:04;102571.03;;;9.78;99.97
61506;BME280;47366;51.916;4.574;2024-01-30T03:40:30;102561.22;;;9.74;100.00
61506;BME280;47366;51.916;4.574;2024-01-30T03:42:55;102560.31;;;9.75;100.00
61506;BME280;47366;51.916;4.574;2024-01-30T03:45:20;102563.66;;;9.84;99.81
61506;BME280;47366;51.916;4.574;2024-01-30T03:47:45;102548.75;;;9.70;100.00
61506;BME280;47366;51.916;4.574;2024-01-30T03:50:11;102558.38;;;9.79;100.00
61506;BME280;47366;51.916;4.574;2024-01-30T03:52:36;102545.91;;;9.75;100.00
61506;BME280;47366;51.916;4.574;2024-01-30T03:55:02;102558.31;;;9.82;100.00
61506;BME280;47366;51.916;4.574;2024-01-30T03:57:27;102552.81;;;9.84;100.00
61506;BME280;47366;51.916;4.574;2024-01-30T03:59:52;102553.09;;;9.74;100.00
61506;BME280;47366;51.916;4.574;2024-01-30T04:02:18;102551.63;;;9.64;100.00
61506;BME280;47366;51.916;4.574;2024-01-30T04:04:44;102547.06;;;9.66;100.00
61506;BME280;47366;51.916;4.574;2024-01-30T04:07:09;102536.38;;;9.62;100.00
61506;BME280;47366;51.916;4.574;2024-01-30T04:09:34;102536.41;;;9.60;100.00
61506;BME280;47366;51.916;4.574;2024-01-30T04:11:59;102534.66;;;9.59;100.00
61506;BME280;47366;51.916;4.574;2024-01-30T04:14:25;102538.97;;;9.65;100.00
61506;BME280;47366;51.916;4.574;2024-01-30T04:16:50;102541.03;;;9.56;100.00
61506;BME280;47366;51.916;4.574;2024-01-30T04:19:15;102533.81;;;9.57;100.00
61506;BME280;47366;51.916;4.574;2024-01-30T04:21:41;102539.72;;;9.70;100.00
61506;BME280;47366;51.916;4.574;2024-01-30T04:24:06;102543.38;;;9.69;100.00
61506;BME280;47366;51.916;4.574;2024-01-30T04:26:31;102542.41;;;9.70;100.00
61506;BME280;47366;51.916;4.574;2024-01-30T04:28:57;102535.97;;;9.75;100.00
61506;BME280;47366;51.916;4.574;2024-01-30T04:31:22;102536.03;;;9.72;100.00
61506;BME280;47366;51.916;4.574;2024-01-30T04:33:47;102526.19;;;9.70;100.00
61506;BME280;47366;51.916;4.574;2024-01-30T04:36:13;102533.19;;;9.77;100.00
61506;BME280;47366;51.916;4.574;2024-01-30T04:38:38;102527.00;;;9.73;100.00
61506;BME280;47366;51.916;4.574;2024-01-30T04:41:05;102529.84;;;9.69;100.00
61506;BME280;47366;51.916;4.574;2024-01-30T04:43:30;102531.84;;;9.62;100.00
61506;BME280;47366;51.916;4.574;2024-01-30T04:45:56;102532.84;;;9.58;100.00
61506;BME280;47366;51.916;4.574;2024-01-30T04:48:21;102539.19;;;9.59;100.00
61506;BME280;47366;51.916;4.574;2024-01-30T04:50:46;102522.22;;;9.53;100.00
61506;BME280;47366;51.916;4.574;2024-01-30T04:53:12;102512.31;;;9.52;100.00
61506;BME280;47366;51.916;4.574;2024-01-30T04:55:37;102517.75;;;9.51;100.00
61506;BME280;47366;51.916;4.574;2024-01-30T04:58:02;102532.97;;;9.55;100.00
61506;BME280;47366;51.916;4.574;2024-01-30T05:00:28;102525.72;;;9.55;100.00
61506;BME280;47366;51.916;4.574;2024-01-30T05:02:55;102540.16;;;9.56;100.00
61506;BME280;47366;51.916;4.574;2024-01-30T05:05:20;102539.31;;;9.54;100.00
61506;BME280;47366;51.916;4.574;2024-01-30T05:07:47;102529.38;;;9.54;100.00
61506;BME280;47366;51.916;4.574;2024-01-30T05:10:12;102533.06;;;9.52;100.00
61506;BME280;47366;51.916;4.574;2024-01-30T05:12:39;102538.44;;;9.53;100.00
61506;BME280;47366;51.916;4.574;2024-01-30T05:15:04;102525.09;;;9.47;100.00
61506;BME280;47366;51.916;4.574;2024-01-30T05:17:30;102535.75;;;9.52;100.00
61506;BME280;47366;51.916;4.574;2024-01-30T05:19:55;102532.94;;;9.56;100.00
61506;BME280;47366;51.916;4.574;2024-01-30T05:22:20;102530.16;;;9.58;100.00
61506;BME280;47366;51.916;4.574;2024-01-30T05:24:46;102520.28;;;9.57;100.00
61506;BME280;47366;51.916;4.574;2024-01-30T05:27:11;102527.72;;;9.78;100.00
61506;BME280;47366;51.916;4.574;2024-01-30T05:29:39;102518.66;;;9.79;100.00
61506;BME280;47366;51.916;4.574;2024-01-30T05:32:04;102528.69;;;9.77;100.00
61506;BME280;47366;51.916;4.574;2024-01-30T05:34:31;102533.94;;;9.82;100.00
61506;BME280;47366;51.916;4.574;2024-01-30T05:36:56;102532.03;;;9.86;100.00
61506;BME280;47366;51.916;4.574;2024-01-30T05:39:21;102524.84;;;9.85;100.00
61506;BME280;47366;51.916;4.574;2024-01-30T05:41:46;102530.25;;;9.85;100.00
61506;BME280;47366;51.916;4.574;2024-01-30T05:44:12;102539.22;;;9.87;100.00
61506;BME280;47366;51.916;4.574;2024-01-30T05:46:37;102535.69;;;9.85;100.00
61506;BME280;47366;51.916;4.574;2024-01-30T05:49:02;102542.84;;;9.86;100.00
61506;BME280;47366;51.916;4.574;2024-01-30T05:51:28;102530.41;;;9.80;100.00
61506;BME280;47366;51.916;4.574;2024-01-30T05:53:53;102540.25;;;9.83;100.00
61506;BME280;47366;51.916;4.574;2024-01-30T05:56:19;102550.84;;;9.89;100.00
61506;BME280;47366;51.916;4.574;2024-01-30T05:58:44;102542.84;;;9.86;100.00
61506;BME280;47366;51.916;4.574;2024-01-30T06:01:10;102549.09;;;9.88;100.00
61506;BME280;47366;51.916;4.574;2024-01-30T06:03:35;102548.16;;;9.89;100.00
61506;BME280;47366;51.916;4.574;2024-01-30T06:06:01;102543.72;;;9.86;100.00
61506;BME280;47366;51.916;4.574;2024-01-30T06:08:26;102547.25;;;9.90;100.00
61506;BME280;47366;51.916;4.574;2024-01-30T06:10:51;102552.56;;;9.91;100.00
61506;BME280;47366;51.916;4.574;2024-01-30T06:13:17;102554.34;;;9.94;100.00
61506;BME280;47366;51.916;4.574;2024-01-30T06:15:42;102545.50;;;9.87;100.00
61506;BME280;47366;51.916;4.574;2024-01-30T06:18:08;102539.03;;;9.91;100.00
61506;BME280;47366;51.916;4.574;2024-01-30T06:20:33;102546.09;;;9.97;100.00
61506;BME280;47366;51.916;4.574;2024-01-30T06:22:59;102549.00;;;9.91;100.00
61506;BME280;47366;51.916;4.574;2024-01-30T06:25:24;102555.16;;;9.96;100.00
61506;BME280;47366;51.916;4.574;2024-01-30T06:27:50;102550.66;;;9.96;100.00
61506;BME280;47366;51.916;4.574;2024-01-30T06:30:15;102540.72;;;9.95;100.00
61506;BME280;47366;51.916;4.574;2024-01-30T06:32:40;102545.13;;;9.99;100.00
61506;BME280;47366;51.916;4.574;2024-01-30T06:35:06;102550.44;;;10.03;100.00
61506;BME280;47366;51.916;4.574;2024-01-30T06:37:31;102553.13;;;10.03;100.00
61506;BME280;47366;51.916;4.574;2024-01-30T06:39:57;102551.31;;;10.03;100.00
61506;BME280;47366;51.916;4.574;2024-01-30T06:42:22;102541.53;;;9.99;100.00
61506;BME280;47366;51.916;4.574;2024-01-30T06:44:47;102559.34;;;10.06;100.00
61506;BME280;47366;51.916;4.574;2024-01-30T06:47:13;102553.22;;;10.01;100.00
61506;BME280;47366;51.916;4.574;2024-01-30T06:49:38;102555.69;;;10.07;100.00
61506;BME280;47366;51.916;4.574;2024-01-30T06:52:07;102559.28;;;10.08;100.00
61506;BME280;47366;51.916;4.574;2024-01-30T06:54:32;102560.09;;;10.11;100.00
61506;BME280;47366;51.916;4.574;2024-01-30T06:56:58;102565.44;;;10.13;100.00
61506;BME280;47366;51.916;4.574;2024-01-30T06:59:24;102556.53;;;10.09;100.00
61506;BME280;47366;51.916;4.574;2024-01-30T07:01:49;102554.84;;;10.05;100.00
61506;BME280;47366;51.916;4.574;2024-01-30T07:04:14;102564.56;;;10.12;100.00
61506;BME280;47366;51.916;4.574;2024-01-30T07:06:41;102560.97;;;10.12;100.00
61506;BME280;47366;51.916;4.574;2024-01-30T07:09:06;102554.59;;;10.13;100.00
61506;BME280;47366;51.916;4.574;2024-01-30T07:11:31;102558.31;;;10.10;100.00
61506;BME280;47366;51.916;4.574;2024-01-30T07:13:57;102564.41;;;10.17;100.00
61506;BME280;47366;51.916;4.574;2024-01-30T07:16:22;102562.53;;;10.19;100.00
61506;BME280;47366;51.916;4.574;2024-01-30T07:18:48;102570.47;;;10.25;100.00
61506;BME280;47366;51.916;4.574;2024-01-30T07:21:14;102573.13;;;10.27;100.00
61506;BME280;47366;51.916;4.574;2024-01-30T07:23:40;102573.19;;;10.25;100.00
61506;BME280;47366;51.916;4.574;2024-01-30T07:26:06;102580.28;;;10.29;100.00
61506;BME280;47366;51.916;4.574;2024-01-30T07:28:32;102569.47;;;10.29;100.00
61506;BME280;47366;51.916;4.574;2024-01-30T07:30:57;102580.00;;;10.38;100.00
61506;BME280;47366;51.916;4.574;2024-01-30T07:33:23;102577.34;;;10.37;100.00
61506;BME280;47366;51.916;4.574;2024-01-30T07:35:48;102588.97;;;10.40;100.00
61506;BME280;47366;51.916;4.574;2024-01-30T07:38:14;102590.56;;;10.46;100.00
61506;BME280;47366;51.916;4.574;2024-01-30T07:40:39;102588.63;;;10.51;100.00
61506;BME280;47366;51.916;4.574;2024-01-30T07:43:04;102584.94;;;10.54;100.00
61506;BME280;47366;51.916;4.574;2024-01-30T07:45:30;102586.69;;;10.55;100.00
61506;BME280;47366;51.916;4.574;2024-01-30T07:47:58;102589.25;;;10.59;100.00
61506;BME280;47366;51.916;4.574;2024-01-30T07:50:25;102596.41;;;10.60;100.00
61506;BME280;47366;51.916;4.574;2024-01-30T07:52:51;102589.28;;;10.58;100.00
61506;BME280;47366;51.916;4.574;2024-01-30T07:55:22;102602.63;;;10.64;100.00
61506;BME280;47366;51.916;4.574;2024-01-30T07:57:54;102596.09;;;10.70;100.00
61506;BME280;47366;51.916;4.574;2024-01-30T08:00:20;102601.38;;;10.74;100.00
61506;BME280;47366;51.916;4.574;2024-01-30T08:02:52;102607.69;;;10.75;100.00
61506;BME280;47366;51.916;4.574;2024-01-30T08:05:21;102606.63;;;10.79;100.00
61506;BME280;47366;51.916;4.574;2024-01-30T08:07:48;102608.47;;;10.78;100.00
61506;BME280;47366;51.916;4.574;2024-01-30T08:10:15;102614.66;;;10.82;100.00
61506;BME280;47366;51.916;4.574;2024-01-30T08:12:41;102613.78;;;10.81;100.00
61506;BME280;47366;51.916;4.574;2024-01-30T08:15:06;102610.03;;;10.86;100.00
61506;BME280;47366;51.916;4.574;2024-01-30T08:17:32;102618.16;;;10.86;100.00
61506;BME280;47366;51.916;4.574;2024-01-30T08:19:58;102624.34;;;10.89;100.00
61506;BME280;47366;51.916;4.574;2024-01-30T08:22:23;102627.91;;;10.91;100.00
61506;BME280;47366;51.916;4.574;2024-01-30T08:24:49;102627.66;;;10.99;100.00
61506;BME280;47366;51.916;4.574;2024-01-30T08:27:14;102632.09;;;11.01;100.00
61506;BME280;47366;51.916;4.574;2024-01-30T08:29:39;102635.72;;;11.00;100.00
61506;BME280;47366;51.916;4.574;2024-01-30T08:32:06;102639.28;;;11.02;100.00
61506;BME280;47366;51.916;4.574;2024-01-30T08:34:31;102624.75;;;11.03;100.00
61506;BME280;47366;51.916;4.574;2024-01-30T08:36:57;102625.59;;;11.05;100.00
61506;BME280;47366;51.916;4.574;2024-01-30T08:39:22;102632.66;;;11.11;99.97
61506;BME280;47366;51.916;4.574;2024-01-30T08:41:47;102628.06;;;11.13;100.00
61506;BME280;47366;51.916;4.574;2024-01-30T08:44:13;102627.06;;;11.16;99.72
61506;BME280;47366;51.916;4.574;2024-01-30T08:46:38;102632.34;;;11.20;99.12
61506;BME280;47366;51.916;4.574;2024-01-30T08:49:04;102618.31;;;11.08;99.31
61506;BME280;47366;51.916;4.574;2024-01-30T08:51:32;102618.53;;;11.01;100.00
61506;BME280;47366;51.916;4.574;2024-01-30T08:53:57;102631.19;;;11.01;100.00
61506;BME280;47366;51.916;4.574;2024-01-30T08:56:24;102624.28;;;10.92;100.00
61506;BME280;47366;51.916;4.574;2024-01-30T08:58:49;102635.81;;;10.99;100.00
61506;BME280;47366;51.916;4.574;2024-01-30T09:01:16;102636.69;;;10.99;100.00
61506;BME280;47366;51.916;4.574;2024-01-30T09:03:41;102638.28;;;11.05;100.00
61506;BME280;47366;51.916;4.574;2024-01-30T09:06:09;102631.53;;;11.17;100.00
61506;BME280;47366;51.916;4.574;2024-01-30T09:08:35;102630.50;;;11.21;99.42
61506;BME280;47366;51.916;4.574;2024-01-30T09:11:00;102632.50;;;11.16;99.41
61506;BME280;47366;51.916;4.574;2024-01-30T09:13:26;102635.53;;;11.07;99.79
61506;BME280;47366;51.916;4.574;2024-01-30T09:15:51;102638.16;;;11.08;100.00
61506;BME280;47366;51.916;4.574;2024-01-30T09:18:16;102653.44;;;11.11;100.00
61506;BME280;47366;51.916;4.574;2024-01-30T09:20:42;102639.13;;;11.07;100.00
61506;BME280;47366;51.916;4.574;2024-01-30T09:23:07;102650.69;;;11.12;100.00
61506;BME280;47366;51.916;4.574;2024-01-30T09:25:33;102652.41;;;11.15;100.00
61506;BME280;47366;51.916;4.574;2024-01-30T09:27:59;102658.63;;;11.18;99.66
61506;BME280;47366;51.916;4.574;2024-01-30T09:30:24;102653.03;;;11.23;98.71
61506;BME280;47366;51.916;4.574;2024-01-30T09:32:50;102654.59;;;11.30;98.48
61506;BME280;47366;51.916;4.574;2024-01-30T09:35:15;102664.38;;;11.34;98.58
61506;BME280;47366;51.916;4.574;2024-01-30T09:37:40;102659.84;;;11.35;98.58
61506;BME280;47366;51.916;4.574;2024-01-30T09:40:07;102663.56;;;11.32;98.56
61506;BME280;47366;51.916;4.574;2024-01-30T09:42:34;102662.81;;;11.27;98.67
61506;BME280;47366;51.916;4.574;2024-01-30T09:45:05;102681.59;;;11.33;98.53
61506;BME280;47366;51.916;4.574;2024-01-30T09:47:41;102698.75;;;11.34;98.42
61506;BME280;47366;51.916;4.574;2024-01-30T09:50:10;102687.31;;;11.25;98.55
61506;BME280;47366;51.916;4.574;2024-01-30T09:52:36;102688.91;;;11.31;98.39
61506;BME280;47366;51.916;4.574;2024-01-30T09:55:02;102685.34;;;11.29;98.23
61506;BME280;47366;51.916;4.574;2024-01-30T09:57:28;102688.22;;;11.24;98.76
61506;BME280;47366;51.916;4.574;2024-01-30T09:59:53;102698.91;;;11.29;98.45
61506;BME280;47366;51.916;4.574;2024-01-30T10:02:19;102696.31;;;11.26;98.43
61506;BME280;47366;51.916;4.574;2024-01-30T10:04:48;102701.03;;;11.21;99.10
61506;BME280;47366;51.916;4.574;2024-01-30T10:07:14;102708.31;;;11.19;98.97
61506;BME280;47366;51.916;4.574;2024-01-30T10:09:39;102704.50;;;11.24;98.19
61506;BME280;47366;51.916;4.574;2024-01-30T10:12:05;102706.28;;;11.25;97.71
61506;BME280;47366;51.916;4.574;2024-01-30T10:14:31;102698.31;;;11.21;97.15
61506;BME280;47366;51.916;4.574;2024-01-30T10:16:57;102696.63;;;11.17;96.70
61506;BME280;47366;51.916;4.574;2024-01-30T10:19:23;102704.47;;;11.26;96.81
61506;BME280;47366;51.916;4.574;2024-01-30T10:21:48;102706.59;;;11.16;96.52
61506;BME280;47366;51.916;4.574;2024-01-30T10:24:14;102713.19;;;11.09;96.00
61506;BME280;47366;51.916;4.574;2024-01-30T10:26:39;102735.75;;;11.10;96.12
61506;BME280;47366;51.916;4.574;2024-01-30T10:29:05;102709.16;;;10.94;95.67
61506;BME280;47366;51.916;4.574;2024-01-30T10:31:30;102717.38;;;10.91;95.41
61506;BME280;47366;51.916;4.574;2024-01-30T10:33:56;102733.75;;;10.88;95.58
61506;BME280;47366;51.916;4.574;2024-01-30T10:36:28;102734.75;;;10.86;95.15
61506;BME280;47366;51.916;4.574;2024-01-30T10:38:55;102749.97;;;10.90;94.51
61506;BME280;47366;51.916;4.574;2024-01-30T10:41:26;102749.06;;;10.89;94.12
61506;BME280;47366;51.916;4.574;2024-01-30T10:44:04;102741.00;;;10.88;93.57
61506;BME280;47366;51.916;4.574;2024-01-30T10:46:33;102736.75;;;10.79;93.52
61506;BME280;47366;51.916;4.574;2024-01-30T10:49:00;102754.81;;;10.80;93.25
61506;BME280;47366;51.916;4.574;2024-01-30T10:51:29;102743.03;;;10.81;93.82
61506;BME280;47366;51.916;4.574;2024-01-30T10:53:55;102738.97;;;10.66;92.87
61506;BME280;47366;51.916;4.574;2024-01-30T10:56:22;102744.34;;;10.68;93.12
61506;BME280;47366;51.916;4.574;2024-01-30T10:58:52;102741.63;;;10.68;93.18
61506;BME280;47366;51.916;4.574;2024-01-30T11:01:19;102744.44;;;10.65;92.85
61506;BME280;47366;51.916;4.574;2024-01-30T11:03:45;102740.88;;;10.62;92.78
61506;BME280;47366;51.916;4.574;2024-01-30T11:06:11;102748.16;;;10.60;92.89
61506;BME280;47366;51.916;4.574;2024-01-30T11:08:43;102748.34;;;10.56;93.24
61506;BME280;47366;51.916;4.574;2024-01-30T11:11:09;102770.06;;;10.54;93.38
61506;BME280;47366;51.916;4.574;2024-01-30T11:13:35;102761.31;;;10.45;93.94
61506;BME280;47366;51.916;4.574;2024-01-30T11:16:02;102757.28;;;10.27;94.70
61506;BME280;47366;51.916;4.574;2024-01-30T11:18:33;102759.25;;;10.21;95.57
61506;BME280;47366;51.916;4.574;2024-01-30T11:20:59;102756.56;;;10.20;95.74
61506;BME280;47366;51.916;4.574;2024-01-30T11:23:27;102776.50;;;10.17;95.89
61506;BME280;47366;51.916;4.574;2024-01-30T11:25:53;102769.69;;;10.04;96.28
61506;BME280;47366;51.916;4.574;2024-01-30T11:28:20;102772.66;;;9.95;96.96
61506;BME280;47366;51.916;4.574;2024-01-30T11:30:46;102783.59;;;9.90;97.14
61506;BME280;47366;51.916;4.574;2024-01-30T11:33:13;102781.88;;;9.88;97.52
61506;BME280;47366;51.916;4.574;2024-01-30T11:35:43;102767.63;;;9.81;96.81
61506;BME280;47366;51.916;4.574;2024-01-30T11:38:10;102759.50;;;9.81;96.44
61506;BME280;47366;51.916;4.574;2024-01-30T11:40:37;102776.63;;;9.82;96.09
61506;BME280;47366;51.916;4.574;2024-01-30T11:43:05;102777.59;;;9.79;95.68
61506;BME280;47366;51.916;4.574;2024-01-30T11:45:31;102783.06;;;9.77;95.33
61506;BME280;47366;51.916;4.574;2024-01-30T11:47:57;102769.47;;;9.79;94.57
61506;BME280;47366;51.916;4.574;2024-01-30T11:50:25;102783.09;;;9.76;93.91
61506;BME280;47366;51.916;4.574;2024-01-30T11:52:51;102774.84;;;9.81;93.80
61506;BME280;47366;51.916;4.574;2024-01-30T11:55:16;102788.22;;;9.87;93.55
61506;BME280;47366;51.916;4.574;2024-01-30T11:57:43;102774.00;;;9.78;93.13
61506;BME280;47366;51.916;4.574;2024-01-30T12:00:19;102774.00;;;9.78;93.36
61506;BME280;47366;51.916;4.574;2024-01-30T12:02:53;102780.41;;;9.74;92.68
61506;BME280;47366;51.916;4.574;2024-01-30T12:05:25;102783.13;;;9.74;92.59
61506;BME280;47366;51.916;4.574;2024-01-30T12:07:51;102792.09;;;9.76;92.53
61506;BME280;47366;51.916;4.574;2024-01-30T12:10:16;102789.38;;;9.78;92.56
61506;BME280;47366;51.916;4.574;2024-01-30T12:12:45;102795.50;;;9.85;92.52
61506;BME280;47366;51.916;4.574;2024-01-30T12:15:11;102782.16;;;9.77;91.82
61506;BME280;47366;51.916;4.574;2024-01-30T12:17:36;102787.25;;;9.89;91.60
61506;BME280;47366;51.916;4.574;2024-01-30T12:22:41;102808.72;;;9.95;92.03
61506;BME280;47366;51.916;4.574;2024-01-30T12:25:11;102800.91;;;9.85;92.87
61506;BME280;47366;51.916;4.574;2024-01-30T12:27:37;102810.94;;;9.79;93.73
61506;BME280;47366;51.916;4.574;2024-01-30T12:30:07;102808.25;;;9.79;94.23
61506;BME280;47366;51.916;4.574;2024-01-30T12:32:37;102808.09;;;9.86;94.42
61506;BME280;47366;51.916;4.574;2024-01-30T12:35:08;102814.25;;;9.91;93.97
61506;BME280;47366;51.916;4.574;2024-01-30T12:37:34;102814.38;;;9.86;93.50
61506;BME280;47366;51.916;4.574;2024-01-30T12:40:00;102809.09;;;9.82;93.76
61506;BME280;47366;51.916;4.574;2024-01-30T12:42:26;102815.44;;;9.82;94.21
61506;BME280;47366;51.916;4.574;2024-01-30T12:44:52;102830.06;;;9.75;94.98
61506;BME280;47366;51.916;4.574;2024-01-30T12:47:17;102808.56;;;9.67;95.81